ADDS METAR Data INFO
IDs: Format: Raw Decoded Include TAF

Data at: 2054 UTC 24 Jun 2017

KRKP 242016Z AUTO 01018G24KT 10SM -RA SCT023 BKN037 BKN044 29/21 A3005 RMK AO2 PK WND 01027/1953 WSHFT 1935 LTG DSNT NE AND W RAB04 P0000 T02940211
KRKP 241955Z AUTO 01021G27KT 10SM FEW015 BKN022 BKN027 27/22 A3005 RMK AO2 PK WND 01027/1953 WSHFT 1935 T02720217
KRKP 241948Z AUTO 01019G25KT 10SM FEW015 BKN020 28/23 A3005 RMK AO2 WSHFT 1933 LTG DSNT NE AND W SLP176 T02830228
KRKP 241947Z AUTO 01018G24KT 10SM FEW015 BKN020 28/23 A3004 RMK AO2 WSHFT 1933 LTG DSNT NE AND W
KRKP 241853Z AUTO 12009KT 10SM CLR 33/24 A3002 RMK AO2 LTG DSNT N AND NW SLP167 T03280239
KRKP 241753Z AUTO 14009KT 10SM CLR 33/24 A3003 RMK AO2 SLP169 T03280244 10339 20283 51022
KRKP 241653Z AUTO 14009KT 10SM CLR 33/24 A3002 RMK AO2 SLP166 T03280239
KRKP 241553Z AUTO 14010KT 10SM FEW024 32/24 A2999 RMK AO2 SLP156 T03220244
KRKP 241453Z AUTO 14013G18KT 10SM FEW021 32/24 A2996 RMK AO2 SLP146 T03170244 53009
KRKP 241353Z AUTO 14012G17KT 10SM SCT019 31/24 A2994 RMK AO2 SLP141 T03060244
KRKP 241253Z AUTO 15011KT 9SM FEW016 29/24 A2994 RMK AO2 SLP139 T02940244
KRKP 241153Z AUTO 15007KT 8SM SCT015 28/25 A2993 RMK AO2 LTG DSNT N SLP137 T02830250 10289 20283 53019
KRKP 241053Z AUTO 15010KT 9SM FEW014 FEW021 28/25 A2991 RMK AO2 SLP130 T02830250
KRKP 240953Z AUTO 15012G18KT 8SM FEW014 FEW028 SCT049 29/26 A2989 RMK AO2 SLP122 T02890256
KRKP 240853Z AUTO 16011G17KT 8SM FEW015 SCT024 29/26 A2988 RMK AO2 SLP118 T02890256 58008
KRKP 240753Z AUTO 15008KT 8SM CLR 29/26 A2988 RMK AO2 SLP118 T02890261
KRKP 240653Z AUTO 15010G17KT 8SM FEW014 29/26 A2990 RMK AO2 SLP126 T02890261
KRKP 240553Z AUTO 16007KT 9SM FEW015 29/26 A2990 RMK AO2 SLP126 T02890256 10300 20289 403390283 51022
KRKP 240453Z AUTO 14011KT 9SM FEW015 29/26 A2988 RMK AO2 SLP121 T02890256
KRKP 240444Z AUTO 15009KT 9SM SCT015 29/26 A2988 RMK AO2 T02890256
KRKP 240426Z AUTO 15010KT 9SM BKN015 BKN021 29/26 A2987 RMK AO2 T02940261
KRKP 240353Z AUTO 14009KT 9SM SCT016 29/26 A2987 RMK AO2 PRESRR SLP115 T02890256
KRKP 240321Z AUTO 14013KT 9SM SCT016 29/25 A2985 RMK AO2 T02890250
KRKP 240253Z AUTO 15009G18KT 8SM BKN017 BKN024 29/26 A2983 RMK AO2 SLP104 T02940256 53021
KRKP 240153Z AUTO 14014KT 8SM SCT017 SCT025 29/25 A2980 RMK AO2 SLP094 T02940250
KRKP 240053Z AUTO 14011KT 8SM BKN019 30/25 A2979 RMK AO2 SLP088 T03000250
KRKP 232353Z AUTO 14015G20KT 6SM HZ FEW020 SCT025 31/24 A2977 RMK AO2 SLP083 T03060244 10339 20306 55008
KRKP 232253Z AUTO 15013KT 5SM HZ FEW021 32/24 A2977 RMK AO2 SLP082 T03170244
KRKP 232153Z AUTO 14014KT 5SM HZ CLR 33/25 A2978 RMK AO2 SLP087 T03280250
KRKP 232053Z AUTO 14015G22KT 6SM HZ CLR 33/24 A2980 RMK AO2 SLP091 T03280244 58005
KRKP 231953Z AUTO 14015G21KT 6SM HZ FEW023 FEW028 33/24 A2981 RMK AO2 SLP095 T03280244
KRKP 231853Z AUTO 14014G19KT 9SM SCT022 SCT028 33/24 A2981 RMK AO2 SLP094 T03330244
KRKP 231753Z AUTO 16013G21KT 10SM FEW021 33/24 A2981 RMK AO2 SLP096 T03280244 10333 20283 53008
KRKP 231653Z AUTO 15013G19KT 10SM CLR 33/24 A2980 RMK AO2 SLP093 T03280244
KRKP 231553Z AUTO 17009G17KT 10SM CLR 32/24 A2979 RMK AO2 SLP088 T03170239
KRKP 231453Z AUTO 17011G20KT 10SM SCT023 31/24 A2979 RMK AO2 SLP088 T03110239 51011
KRKP 231353Z AUTO 16012G19KT 10SM FEW021 FEW026 30/24 A2978 RMK AO2 SLP085 T03000239
KRKP 231253Z AUTO 17009KT 9SM FEW020 29/24 A2978 RMK AO2 SLP084 T02890244
KRKP 231153Z AUTO 16010G18KT 9SM CLR 28/24 A2975 RMK AO2 SLP076 T02830239 10283 20283 53009
KRKP 231053Z AUTO 17010G16KT 10SM FEW020 SCT026 28/24 A2974 RMK AO2 SLP072 T02830239
KRKP 230953Z AUTO 18009G21KT 10SM FEW017 28/24 A2973 RMK AO2 SLP068 T02830239


Page loaded:  20:54 UTC  |   01:54 PM Pacific  |   02:54 PM Mountain  |   03:54 PM Central  |   04:54 PM Eastern

 

ADVISORIES

FORECASTS

FORECASTS

OBSERVATIONS

USER TOOLS

ABOUT US